createdAt,value
2018-09-20T00:01:52.663Z,9.13
2018-09-20T00:06:45.283Z,9.73
2018-09-20T00:11:37.868Z,7.73
2018-09-20T00:16:30.505Z,13.43
2018-09-20T00:21:23.159Z,9.40
2018-09-20T00:26:15.755Z,8.90
2018-09-20T00:31:08.322Z,10.90
2018-09-20T00:36:00.945Z,12.93
2018-09-20T00:40:53.543Z,10.63
2018-09-20T00:45:46.150Z,9.57
2018-09-20T00:50:38.723Z,13.03
2018-09-20T00:55:31.318Z,9.30
2018-09-20T01:00:23.912Z,19.73
2018-09-20T01:05:16.535Z,16.40
2018-09-20T01:10:09.183Z,10.80
2018-09-20T01:15:01.845Z,8.53
2018-09-20T01:19:54.521Z,11.53
2018-09-20T01:24:47.094Z,11.40
2018-09-20T01:29:39.737Z,14.03
2018-09-20T01:34:32.372Z,10.10
2018-09-20T01:39:24.971Z,10.13
2018-09-20T01:44:17.632Z,7.87
2018-09-20T01:49:09.793Z,14.90
2018-09-20T01:54:02.382Z,16.30
2018-09-20T01:58:54.906Z,10.73
2018-09-20T02:03:47.519Z,11.13
2018-09-20T02:08:40.089Z,10.13
2018-09-20T02:13:32.671Z,10.23
2018-09-20T02:18:25.315Z,9.13
2018-09-20T02:23:17.940Z,10.27
2018-09-20T02:28:10.556Z,12.37
2018-09-20T02:33:03.148Z,10.23
2018-09-20T02:37:55.871Z,10.07
2018-09-20T02:42:48.446Z,11.03
2018-09-20T02:47:41.002Z,12.00
2018-09-20T02:52:33.585Z,9.67
2018-09-20T02:57:26.219Z,14.63
2018-09-20T03:02:18.827Z,11.43
2018-09-20T03:07:11.452Z,9.57
2018-09-20T03:12:04.086Z,17.67
2018-09-20T03:16:56.728Z,9.57
2018-09-20T03:21:49.659Z,9.30
2018-09-20T03:26:42.236Z,15.07
2018-09-20T03:31:34.902Z,16.80
2018-09-20T03:36:27.430Z,11.40
2018-09-20T03:41:20.008Z,13.70
2018-09-20T03:46:13.000Z,11.77
2018-09-20T03:51:05.858Z,14.13
2018-09-20T03:55:58.491Z,13.07
2018-09-20T04:00:51.276Z,14.30
2018-09-20T04:05:43.939Z,16.13
2018-09-20T04:10:36.686Z,11.97
2018-09-20T04:15:29.270Z,15.53
2018-09-20T04:20:21.838Z,13.33
2018-09-20T04:25:14.423Z,16.33
2018-09-20T04:30:07.090Z,16.33
2018-09-20T04:34:59.681Z,16.63
2018-09-20T04:39:52.282Z,19.03
2018-09-20T04:44:44.871Z,21.43
2018-09-20T04:49:37.635Z,21.33
2018-09-20T04:54:30.249Z,18.00
2018-09-20T04:59:22.835Z,26.83
2018-09-20T05:04:15.447Z,20.53
2018-09-20T05:09:10.957Z,25.80
2018-09-20T05:14:03.611Z,24.97
2018-09-20T05:18:56.303Z,28.30
2018-09-20T05:23:48.887Z,22.17
2018-09-20T05:28:41.482Z,23.73
2018-09-20T05:33:34.067Z,25.00
2018-09-20T05:38:26.728Z,20.93
2018-09-20T05:43:19.353Z,25.87
2018-09-20T05:48:11.967Z,26.47
2018-09-20T05:53:04.651Z,23.10
2018-09-20T05:57:57.249Z,24.93
2018-09-20T06:02:49.855Z,27.27
2018-09-20T06:07:42.936Z,17.80
2018-09-20T06:12:35.527Z,31.70
2018-09-20T06:17:28.107Z,20.63
2018-09-20T06:22:20.711Z,25.63
2018-09-20T06:27:13.255Z,27.63
2018-09-20T06:32:05.909Z,30.73
2018-09-20T06:36:58.545Z,27.17
2018-09-20T06:41:51.167Z,30.03
2018-09-20T06:46:43.951Z,22.87
2018-09-20T06:51:36.474Z,25.27
2018-09-20T06:56:29.113Z,22.57
2018-09-20T07:01:21.761Z,19.40
2018-09-20T07:06:14.396Z,26.07
2018-09-20T07:11:07.107Z,24.33
2018-09-20T07:15:59.683Z,21.20
2018-09-20T07:20:52.326Z,19.63
2018-09-20T07:25:44.994Z,21.90
2018-09-20T07:30:37.520Z,16.37
2018-09-20T07:35:30.169Z,16.73
2018-09-20T07:40:22.830Z,14.73
2018-09-20T07:45:15.451Z,15.13
2018-09-20T07:50:08.072Z,11.40
2018-09-20T07:55:00.819Z,13.80
2018-09-20T07:59:53.552Z,18.57
2018-09-20T08:04:46.125Z,15.77
2018-09-20T08:09:38.676Z,8.47
2018-09-20T08:14:31.246Z,21.07
2018-09-20T08:19:23.903Z,16.57
2018-09-20T08:24:16.462Z,14.23
2018-09-20T08:29:09.110Z,13.43
2018-09-20T08:34:01.625Z,14.23
2018-09-20T08:38:54.191Z,13.10
2018-09-20T08:43:46.742Z,10.57
2018-09-20T08:48:39.290Z,10.03
2018-09-20T08:53:31.907Z,8.03
2018-09-20T08:58:24.510Z,12.80
2018-09-20T09:03:17.110Z,11.27
2018-09-20T09:08:09.754Z,13.50
2018-09-20T09:13:02.372Z,8.60
2018-09-20T09:17:55.020Z,9.27
2018-09-20T09:22:47.585Z,10.47
2018-09-20T09:27:40.206Z,10.57
2018-09-20T09:32:32.798Z,9.00
2018-09-20T09:37:25.360Z,10.30
2018-09-20T09:42:18.084Z,15.83
2018-09-20T09:47:10.682Z,11.60
2018-09-20T09:52:03.378Z,10.47
2018-09-20T09:56:56.042Z,8.70
2018-09-20T10:01:48.643Z,11.73
2018-09-20T10:06:41.309Z,11.00
2018-09-20T10:11:33.971Z,10.33
2018-09-20T10:16:26.521Z,10.87
2018-09-20T10:21:19.121Z,8.53
2018-09-20T10:26:13.329Z,9.10
2018-09-20T10:31:05.954Z,8.97
2018-09-20T10:35:58.586Z,13.50
2018-09-20T10:40:51.199Z,12.80
2018-09-20T10:45:43.784Z,12.30
2018-09-20T10:50:36.381Z,10.10
2018-09-20T10:55:29.143Z,14.53
2018-09-20T11:00:21.727Z,14.17
2018-09-20T11:05:14.418Z,13.63
2018-09-20T11:10:07.136Z,13.50
2018-09-20T11:14:59.872Z,7.37
2018-09-20T11:19:55.155Z,15.43
2018-09-20T11:24:51.228Z,8.83
2018-09-20T11:29:44.019Z,12.33
2018-09-20T11:34:36.805Z,9.30
2018-09-20T11:39:30.651Z,10.87
2018-09-20T11:44:23.283Z,11.70
2018-09-20T11:49:16.127Z,11.60
2018-09-20T11:54:08.902Z,10.20
2018-09-20T11:59:01.665Z,9.57
2018-09-20T12:03:54.439Z,9.57
2018-09-20T12:08:47.265Z,16.30
2018-09-20T12:18:39.408Z,9.17
2018-09-20T12:23:32.202Z,12.10
2018-09-20T12:28:24.959Z,13.87
2018-09-20T12:33:17.489Z,10.57
2018-09-20T12:38:10.100Z,12.03
2018-09-20T12:43:02.815Z,9.27
2018-09-20T12:47:55.458Z,13.77
2018-09-20T12:52:48.022Z,10.23
2018-09-20T12:57:40.619Z,9.30
2018-09-20T13:02:33.229Z,15.47
2018-09-20T13:07:25.869Z,11.70
2018-09-20T13:12:18.618Z,8.90
2018-09-20T13:17:11.246Z,8.57
2018-09-20T13:22:03.891Z,7.27
2018-09-20T13:26:56.584Z,11.00
2018-09-20T13:31:49.234Z,9.80
2018-09-20T13:36:41.863Z,15.47
2018-09-20T13:41:34.492Z,9.43
2018-09-20T13:46:27.257Z,7.90
2018-09-20T13:51:20.012Z,13.97
2018-09-20T13:56:12.628Z,12.27
2018-09-20T14:01:05.456Z,8.77
2018-09-20T14:05:58.165Z,7.73
2018-09-20T14:10:50.920Z,10.67
2018-09-20T14:15:43.807Z,8.77
2018-09-20T14:20:36.343Z,9.30
2018-09-20T14:25:28.890Z,13.50
2018-09-20T14:30:21.612Z,12.50
2018-09-20T14:35:14.474Z,11.93
2018-09-20T14:40:07.071Z,6.80
2018-09-20T14:44:59.651Z,12.90
2018-09-20T14:49:52.363Z,9.13
2018-09-20T14:54:45.044Z,12.83
2018-09-20T14:59:37.688Z,11.17
2018-09-20T15:04:30.215Z,9.63
2018-09-20T15:09:22.883Z,8.73
2018-09-20T15:14:15.467Z,11.10
2018-09-20T15:19:08.103Z,9.23
2018-09-20T15:24:00.680Z,10.83
2018-09-20T15:28:53.254Z,12.23
2018-09-20T15:33:45.847Z,11.57
2018-09-20T15:38:38.436Z,12.93
2018-09-20T15:43:30.990Z,6.93
2018-09-20T15:48:23.561Z,7.30
2018-09-20T15:53:16.317Z,6.03
2018-09-20T15:58:09.098Z,16.30
2018-09-20T16:03:01.618Z,16.40
2018-09-20T16:07:54.151Z,10.70
2018-09-20T16:12:46.715Z,11.07
2018-09-20T16:17:39.338Z,13.73
2018-09-20T16:22:31.903Z,14.63
2018-09-20T16:27:24.546Z,6.63
2018-09-20T16:34:57.529Z,14.73
2018-09-20T16:39:53.513Z,10.97
2018-09-20T16:44:46.050Z,14.70
2018-09-20T16:49:38.683Z,19.57
2018-09-20T16:54:31.391Z,13.67
2018-09-20T16:59:24.039Z,17.80
2018-09-20T17:04:16.596Z,25.77
2018-09-20T17:09:10.146Z,15.80
2018-09-20T17:14:02.805Z,19.07
2018-09-20T17:18:55.474Z,17.17
2018-09-20T17:23:48.115Z,21.10
2018-09-20T17:28:40.695Z,11.90
2018-09-20T17:33:33.311Z,12.87
2018-09-20T17:38:27.181Z,10.53
2018-09-20T17:43:28.378Z,18.93
2018-09-20T17:48:21.267Z,22.83
2018-09-20T17:53:14.513Z,16.43
2018-09-20T17:58:07.939Z,18.47
2018-09-20T18:03:00.596Z,22.37
2018-09-20T18:07:53.703Z,21.00
2018-09-20T18:12:46.362Z,20.13
2018-09-20T18:17:39.027Z,24.63
2018-09-20T18:22:31.800Z,18.10
2018-09-20T18:27:24.376Z,18.63
2018-09-20T18:32:17.080Z,19.00
2018-09-20T18:37:09.795Z,23.63
2018-09-20T18:42:02.629Z,13.90
2018-09-20T18:46:55.328Z,15.50
2018-09-20T18:51:48.007Z,11.57
2018-09-20T18:56:40.514Z,27.47
2018-09-20T19:01:33.246Z,16.70
2018-09-20T19:06:25.930Z,12.97
2018-09-20T19:11:18.459Z,19.47
2018-09-20T19:16:11.453Z,17.70
2018-09-20T19:21:04.041Z,10.90
2018-09-20T19:25:56.582Z,20.00
2018-09-20T19:30:49.234Z,12.70
2018-09-20T19:35:41.823Z,19.87
2018-09-20T19:40:34.457Z,27.07
2018-09-20T19:45:27.073Z,22.67
2018-09-20T19:50:19.765Z,37.30
2018-09-20T19:55:12.451Z,37.97
2018-09-20T20:00:05.125Z,29.90
2018-09-20T20:04:57.658Z,36.07
2018-09-20T20:09:50.264Z,29.73
2018-09-20T20:14:42.945Z,32.17
2018-09-20T20:19:35.567Z,22.00
2018-09-20T20:24:28.139Z,32.60
2018-09-20T20:29:20.694Z,28.53
2018-09-20T20:34:13.243Z,34.40
2018-09-20T20:39:07.662Z,23.97
2018-09-20T20:44:00.256Z,23.77
2018-09-20T20:48:52.951Z,31.93
2018-09-20T20:53:45.566Z,26.93
2018-09-20T20:58:38.315Z,27.57
2018-09-20T21:03:30.846Z,25.40
2018-09-20T21:08:23.385Z,24.80
2018-09-20T21:13:49.226Z,28.17
2018-09-20T21:18:41.827Z,34.03
2018-09-20T21:23:34.543Z,33.33
2018-09-20T21:28:27.495Z,30.93
2018-09-20T21:33:20.186Z,36.57
2018-09-20T21:38:12.855Z,36.47
2018-09-20T21:43:05.385Z,37.83
2018-09-20T21:47:58.015Z,29.27
2018-09-20T21:52:50.632Z,24.83
2018-09-20T21:57:43.434Z,34.53
2018-09-20T22:02:41.855Z,32.57
2018-09-20T22:07:35.517Z,36.90
2018-09-20T22:12:28.077Z,27.53
2018-09-20T22:17:20.647Z,25.47
2018-09-20T22:22:13.307Z,26.60
2018-09-20T22:27:06.957Z,25.73
2018-09-20T22:31:59.559Z,28.40
2018-09-20T22:36:52.102Z,21.27
2018-09-20T22:41:44.653Z,27.23
2018-09-20T22:46:37.260Z,24.67
2018-09-20T22:51:29.858Z,22.60
2018-09-20T22:56:22.615Z,27.00
2018-09-20T23:01:15.405Z,28.93
2018-09-20T23:06:07.921Z,24.80
2018-09-20T23:11:00.532Z,26.07
2018-09-20T23:15:53.114Z,28.30
2018-09-20T23:20:45.724Z,27.30
2018-09-20T23:25:38.391Z,22.67
2018-09-20T23:30:30.943Z,23.07
2018-09-20T23:35:23.639Z,19.70
2018-09-20T23:40:16.328Z,27.03
2018-09-20T23:45:08.937Z,28.20
2018-09-20T23:50:01.503Z,26.43
2018-09-20T23:54:54.096Z,21.60
2018-09-20T23:59:46.686Z,22.47
